»·PEaware :: N122AJ KSNA-KSDM

N122AJ :: KSNA-KSDM

FLIGHT INFORMATION

Flight Status: Arrived
Operator: Privately registered:
United States
More flights under this callsign
Pilot: Anonymous 13363 (13363)
Aircraft: PIPER PA-28 CHEROKEE ARCHER
(PA28)
More flights by this aircraft type
Origin: KSNA John Wayne-Orange Co
United States
Destination: KSDM Brown Mun
United States
More flights between these airports :: More routes between these airports
Route: +
File this flight plan on PilotEdge
Remarks: NFFS
Altitude:
(Current/Filed)
2,400ft
Speed:
(Current/Filed)
0kts
Departed: 08-Aug-17 09:59 PM
Arrived: 08-Aug-17 10:43 PM
Distance/Time
Traveled:
80nm/0:44
Distance/Time
To Go:
Arrived

Flight Plot

Page will automatically refresh every two minutes.

Flight plan parsing failed; only flown route is shown


Map Options




Map Legend


Flown Route
Filed Route
Departure Airport
Arrival Airport
Navaid (VOR, NDB)
Fix

Horizontal Profiles

Position Reports

Time Latitude Longitude Heading Altitude Ground
Speed
08-Aug-17 22:01 33.601823 -117.349966 82 5603ft 123kts
08-Aug-17 22:02 33.586735 -117.315263 127 5581ft 119kts
08-Aug-17 22:03 33.566927 -117.283501 127 5581ft 118kts
08-Aug-17 22:04 33.547078 -117.251668 127 5583ft 119kts
08-Aug-17 22:05 33.527275 -117.219908 127 5570ft 118kts
08-Aug-17 22:06 33.507361 -117.187969 127 5585ft 120kts
08-Aug-17 22:07 33.487436 -117.156010 127 5581ft 119kts
08-Aug-17 22:08 33.467514 -117.124052 127 5591ft 122kts
08-Aug-17 22:09 33.447452 -117.091874 127 5593ft 123kts
08-Aug-17 22:10 33.427444 -117.059777 127 5596ft 119kts
08-Aug-17 22:11 33.408360 -117.029116 126 5799ft 112kts
08-Aug-17 22:12 33.390168 -116.999848 126 6137ft 107kts
08-Aug-17 22:13 33.371620 -116.970012 126 6343ft 113kts
08-Aug-17 22:14 33.352815 -116.939774 126 6516ft 116kts
08-Aug-17 22:15 33.337331 -116.914900 126 6517ft 120kts
08-Aug-17 22:16 33.315466 -116.888799 169 6514ft 116kts
08-Aug-17 22:17 33.283041 -116.882643 171 6522ft 119kts
08-Aug-17 22:18 33.250180 -116.876554 171 6515ft 119kts
08-Aug-17 22:19 33.217375 -116.870472 171 6508ft 119kts
08-Aug-17 22:20 33.184478 -116.864371 171 6407ft 124kts
08-Aug-17 22:21 33.150424 -116.855593 166 6138ft 126kts
08-Aug-17 22:22 33.116292 -116.845586 166 5937ft 126kts
08-Aug-17 22:23 33.082710 -116.833116 162 5747ft 126kts
08-Aug-17 22:24 33.049174 -116.820264 162 5587ft 126kts
08-Aug-17 22:25 33.018377 -116.809187 162 5314ft 127kts
08-Aug-17 22:26 32.984374 -116.797053 162 5028ft 127kts
08-Aug-17 22:27 32.950357 -116.784785 162 4744ft 128kts
08-Aug-17 22:28 32.916957 -116.772721 162 4524ft 125kts
08-Aug-17 22:29 32.890376 -116.761917 162 4517ft 121kts
08-Aug-17 22:30 32.852713 -116.748181 171 4515ft 120kts
08-Aug-17 22:31 32.820107 -116.740399 171 4512ft 119kts
08-Aug-17 22:32 32.787772 -116.732407 171 4510ft 118kts
08-Aug-17 22:33 32.760998 -116.725793 171 4513ft 118kts
08-Aug-17 22:34 32.728954 -116.717984 171 4522ft 118kts
08-Aug-17 22:35 32.691476 -116.709002 171 4531ft 117kts
08-Aug-17 22:36 32.659579 -116.701485 171 4535ft 117kts
08-Aug-17 22:37 32.634049 -116.702989 219 4540ft 114kts
08-Aug-17 22:38 32.611988 -116.729314 249 4539ft 114kts
08-Aug-17 22:39 32.602463 -116.765283 252 4535ft 114kts
08-Aug-17 22:40 32.593112 -116.801330 252 4533ft 114kts
08-Aug-17 22:41 32.584489 -116.840421 258 4008ft 131kts
08-Aug-17 22:42 32.577820 -116.883364 259 3156ft 140kts
08-Aug-17 22:43 32.571768 -116.924289 261 1762ft 96kts
08-Aug-17 22:44 32.570346 -116.951038 277 989ft 75kts
08-Aug-17 22:45 32.572072 -116.972809 276 511ft 43kts
08-Aug-17 22:46 32.571212 -116.974151 185 511ft 0kts
08-Aug-17 22:47 32.571088 -116.974183 194 512ft 2kts
08-Aug-17 22:48 32.569954 -116.976000 275 512ft 10kts
08-Aug-17 22:49 32.570238 -116.979600 276 511ft 11kts
08-Aug-17 22:50 32.570586 -116.983312 277 512ft 11kts
08-Aug-17 22:51 32.571166 -116.986979 278 512ft 11kts
08-Aug-17 22:52 32.571324 -116.990735 261 511ft 11kts
08-Aug-17 22:53 32.571276 -116.993034 343 512ft 10kts
08-Aug-17 22:54 32.571419 -116.993025 13 512ft 0kts
08-Aug-17 22:55 32.571419 -116.993025 13 512ft 0kts
08-Aug-17 22:56 32.571419 -116.993025 13 512ft 0kts
08-Aug-17 22:57 32.571419 -116.993025 13 512ft 0kts
08-Aug-17 22:58 32.571419 -116.993025 13 512ft 0kts
08-Aug-17 22:59 32.571419 -116.993025 13 512ft 0kts

Navigation Log

Ident Type
Flight plan parsing failed, navigation log unavailable